Time;durP1;ratioP1;P1;durP2;ratioP2;P2;SDS_P1;SDS_P2;PMS_P1;PMS_P2;Temp;Humidity;BMP_temperature;BMP_pressure;BME280_temperature;BME280_humidity;BME280_pressure;Samples;Min_cycle;Max_cycle;Signal;HPM_P1;HPM_P2
2022/11/30 00:00:36;;;;;;;46.92;21.77;;;;;;;7.06;100.00;100830.31;4988420;28;20054;-70
2022/11/30 00:03:03;;;;;;;46.22;22.45;;;;;;;7.05;100.00;100834.72;4991048;28;20050;-70
2022/11/30 00:05:30;;;;;;;49.75;22.45;;;;;;;7.05;100.00;100834.72;4990282;28;20054;-69
2022/11/30 00:07:59;;;;;;;45.85;22.70;;;;;;;7.06;100.00;100825.06;4982455;28;20129;-68
2022/11/30 00:10:27;;;;;;;45.72;21.08;;;;;;;7.12;100.00;100825.75;4979335;28;20058;-69
2022/11/30 00:12:53;;;;;;;53.72;23.52;;;;;;;7.12;100.00;100820.47;4982829;28;20149;-67
2022/11/30 00:15:20;;;;;;;47.45;22.00;;;;;;;7.07;100.00;100816.25;4973407;28;20073;-70
2022/11/30 00:17:47;;;;;;;37.83;20.55;;;;;;;6.98;100.00;100806.81;4980546;28;20046;-70
2022/11/30 00:20:14;;;;;;;44.60;23.05;;;;;;;6.93;100.00;100806.91;4984269;28;20154;-70
2022/11/30 00:22:41;;;;;;;35.53;20.15;;;;;;;7.10;100.00;100832.81;4987295;28;20133;-68
2022/11/30 00:25:09;;;;;;;40.00;19.17;;;;;;;7.06;100.00;100823.28;4986036;28;20077;-69
2022/11/30 00:27:35;;;;;;;44.33;19.75;;;;;;;7.07;100.00;100837.31;4988918;28;20143;-68
2022/11/30 00:30:02;;;;;;;39.38;19.20;;;;;;;7.05;100.00;100826.81;4984993;28;20133;-69
2022/11/30 00:32:29;;;;;;;45.13;21.17;;;;;;;7.10;100.00;100824.91;4992657;28;20064;-72
2022/11/30 00:34:55;;;;;;;37.97;19.30;;;;;;;7.07;100.00;100826.78;4998149;28;20552;-71
2022/11/30 00:37:22;;;;;;;39.25;19.15;;;;;;;7.01;100.00;100822.53;4989845;28;20054;-70
2022/11/30 00:39:48;;;;;;;42.58;18.77;;;;;;;7.00;100.00;100823.44;4972797;28;20507;-71
2022/11/30 00:42:15;;;;;;;41.97;19.25;;;;;;;7.00;100.00;100815.53;4979185;28;20078;-71
2022/11/30 00:44:42;;;;;;;38.03;18.33;;;;;;;7.00;100.00;100824.31;4982650;28;20138;-71
2022/11/30 00:47:08;;;;;;;41.13;18.67;;;;;;;6.83;100.00;100796.66;4985399;28;20720;-71
2022/11/30 00:49:35;;;;;;;42.80;19.73;;;;;;;6.99;100.00;100829.59;4971290;28;20046;-70
2022/11/30 00:52:03;;;;;;;43.97;19.10;;;;;;;6.91;100.00;100828.94;4977345;28;20058;-71
2022/11/30 00:54:29;;;;;;;40.90;18.25;;;;;;;6.87;100.00;100822.03;4984347;28;20057;-71
2022/11/30 00:56:56;;;;;;;47.53;19.75;;;;;;;6.84;100.00;100822.09;4984179;28;20125;-70
2022/11/30 00:59:22;;;;;;;45.40;20.15;;;;;;;6.84;100.00;100824.72;4980529;28;20084;-71
2022/11/30 01:01:49;;;;;;;39.80;18.98;;;;;;;6.78;100.00;100816.97;4979971;28;20047;-70
2022/11/30 01:04:16;;;;;;;38.97;18.13;;;;;;;6.78;100.00;100812.56;4988912;28;20042;-70
2022/11/30 01:06:42;;;;;;;41.72;19.83;;;;;;;6.83;100.00;100815.09;4991698;28;20133;-71
2022/11/30 01:09:09;;;;;;;39.97;18.58;;;;;;;6.80;100.00;100820.44;4982406;28;20072;-68
2022/11/30 01:11:36;;;;;;;41.47;21.05;;;;;;;6.80;100.00;100816.03;4979173;28;20066;-70
2022/11/30 01:14:03;;;;;;;40.45;19.25;;;;;;;6.80;100.00;100818.66;4994322;28;20044;-71
2022/11/30 01:16:31;;;;;;;39.97;19.55;;;;;;;6.82;100.00;100827.38;4994798;28;20056;-70
2022/11/30 01:18:58;;;;;;;38.55;18.17;;;;;;;6.87;100.00;100825.53;4985365;28;20137;-68
2022/11/30 01:21:27;;;;;;;43.45;19.63;;;;;;;6.92;100.00;100833.31;4987178;28;20129;-73
2022/11/30 01:23:54;;;;;;;41.40;19.65;;;;;;;6.90;100.00;100830.72;4986764;28;20163;-71
2022/11/30 01:26:22;;;;;;;45.63;20.17;;;;;;;6.86;100.00;100822.91;4980255;28;20105;-71
2022/11/30 01:28:53;;;;;;;46.53;18.98;;;;;;;6.85;100.00;100823.81;4984416;28;20043;-71
2022/11/30 01:31:22;;;;;;;44.42;20.38;;;;;;;6.83;100.00;100826.50;4997719;28;20589;-71
2022/11/30 01:33:51;;;;;;;39.90;19.75;;;;;;;6.67;100.00;100798.81;4990208;28;20386;-70
2022/11/30 01:36:20;;;;;;;44.70;19.95;;;;;;;6.79;100.00;100813.44;4989554;28;20065;-69
2022/11/30 01:38:49;;;;;;;43.78;20.50;;;;;;;6.78;100.00;100822.22;4977728;28;20046;-69
2022/11/30 01:41:20;;;;;;;42.60;19.90;;;;;;;6.78;100.00;100817.81;4985740;28;20047;-70
2022/11/30 01:43:51;;;;;;;47.17;19.27;;;;;;;6.78;100.00;100828.34;4979940;28;20050;-71
2022/11/30 01:46:41;;;;;;;43.08;20.00;;;;;;;6.72;100.00;100810.09;4953525;28;1148898;-71
2022/11/30 01:49:07;;;;;;;41.55;19.02;;;;;;;6.92;100.00;100831.53;4972757;28;20459;-71
2022/11/30 01:51:39;;;;;;;44.55;20.45;;;;;;;6.90;100.00;100819.31;4994177;28;20061;-69
2022/11/30 01:54:09;;;;;;;40.72;18.40;;;;;;;6.79;100.00;100803.78;4988314;28;20042;-72
2022/11/30 01:56:43;;;;;;;41.35;19.02;;;;;;;6.95;100.00;100826.19;4987098;28;20080;-71
2022/11/30 01:59:10;;;;;;;42.00;19.10;;;;;;;6.98;100.00;100823.47;4974812;28;20153;-72
2022/11/30 02:01:37;;;;;;;36.70;18.77;;;;;;;6.94;100.00;100826.22;4983938;28;20134;-71
2022/11/30 02:04:19;;;;;;;40.75;19.02;;;;;;;6.80;100.00;100802.88;4992462;28;20050;-72
2022/11/30 02:06:47;;;;;;;40.95;19.38;;;;;;;6.93;100.00;100829.75;4984780;28;20065;-72
2022/11/30 02:09:15;;;;;;;43.22;19.08;;;;;;;6.90;100.00;100824.59;4984101;28;20046;-71
2022/11/30 02:11:41;;;;;;;43.58;18.85;;;;;;;6.88;100.00;100826.38;4992933;28;20054;-68
2022/11/30 02:14:22;;;;;;;41.63;19.48;;;;;;;6.89;100.00;100831.63;4994605;28;20056;-70
2022/11/30 02:17:07;;;;;;;44.75;19.33;;;;;;;6.91;100.00;100840.34;4982337;28;20074;-72
2022/11/30 02:20:05;;;;;;;45.25;19.40;;;;;;;6.89;100.00;100836.88;4974381;28;20137;-73
2022/11/30 02:22:37;;;;;;;43.22;19.10;;;;;;;6.93;100.00;100841.13;4991392;28;20364;-71
2022/11/30 02:25:18;;;;;;;43.75;19.92;;;;;;;6.94;100.00;100844.63;4989664;28;20038;-72
2022/11/30 02:28:06;;;;;;;42.10;19.15;;;;;;;6.98;100.00;100846.31;4984831;28;20054;-69
2022/11/30 02:30:36;;;;;;;43.60;19.02;;;;;;;6.95;100.00;100823.53;4980896;28;20049;-73
2022/11/30 02:33:10;;;;;;;44.63;19.85;;;;;;;6.92;100.00;100807.84;4986770;28;20151;-72
2022/11/30 02:35:41;;;;;;;48.97;20.42;;;;;;;7.09;100.00;100833.72;4991460;28;20077;-73
2022/11/30 02:38:08;;;;;;;;;;;;;;;7.12;100.00;100832.78;4984711;28;20050;-72
2022/11/30 02:40:34;;;;;;;48.40;20.65;;;;;;;7.09;100.00;100831.09;4982543;28;19922;-70
2022/11/30 02:43:03;;;;;;;44.78;20.17;;;;;;;7.08;100.00;100829.38;4990433;28;20056;-70
2022/11/30 02:45:36;;;;;;;53.58;20.75;;;;;;;6.99;100.00;100825.19;4993429;28;20054;-71
2022/11/30 02:48:08;;;;;;;45.30;20.15;;;;;;;7.10;100.00;100837.22;4985872;28;20552;-70
2022/11/30 02:50:44;;;;;;;46.50;21.23;;;;;;;6.96;100.00;100813.88;4979783;28;20074;-72
2022/11/30 02:53:12;;;;;;;43.88;20.23;;;;;;;7.10;100.00;100837.22;4992863;28;20080;-70
2022/11/30 02:55:39;;;;;;;47.45;19.58;;;;;;;7.08;100.00;100837.28;4990164;28;20422;-73
2022/11/30 02:58:05;;;;;;;50.20;21.23;;;;;;;6.95;100.00;100812.16;4990818;28;20141;-72
2022/11/30 03:00:32;;;;;;;48.45;20.88;;;;;;;7.06;100.00;100839.09;4977792;28;20104;-70
2022/11/30 03:02:59;;;;;;;46.55;20.48;;;;;;;7.07;100.00;100839.97;4983778;28;20125;-70
2022/11/30 03:05:25;;;;;;;47.50;20.73;;;;;;;7.02;100.00;100830.41;4993407;28;20050;-71
2022/11/30 03:07:52;;;;;;;49.92;20.30;;;;;;;7.06;100.00;100836.47;4990774;28;20069;-70
2022/11/30 03:10:18;;;;;;;54.50;20.63;;;;;;;7.03;100.00;100837.41;4979473;28;20046;-70
2022/11/30 03:12:45;;;;;;;50.67;21.17;;;;;;;7.07;100.00;100847.84;4997176;28;20362;-71
2022/11/30 03:15:11;;;;;;;46.55;20.73;;;;;;;6.95;100.00;100835.84;4994923;28;20418;-71
2022/11/30 03:17:38;;;;;;;51.03;20.90;;;;;;;6.98;100.00;100843.66;4980726;28;20054;-70
2022/11/30 03:20:06;;;;;;;49.25;22.08;;;;;;;7.03;100.00;100854.97;4992012;28;20094;-70
2022/11/30 03:22:32;;;;;;;48.25;20.80;;;;;;;7.04;100.00;100854.94;4985607;28;20410;-71
2022/11/30 03:24:59;;;;;;;49.45;20.52;;;;;;;7.05;100.00;100861.06;4998077;28;20069;-70
2022/11/30 03:27:25;;;;;;;50.85;21.02;;;;;;;7.02;100.00;100850.59;4981478;28;20119;-70
2022/11/30 03:29:52;;;;;;;45.50;21.27;;;;;;;7.03;100.00;100853.19;4981299;28;20047;-70
2022/11/30 03:32:19;;;;;;;50.42;20.50;;;;;;;6.85;100.00;100829.09;4990340;28;20050;-71
2022/11/30 03:34:45;;;;;;;47.70;20.45;;;;;;;6.97;100.00;100852.47;4987924;28;20058;-70
2022/11/30 03:37:12;;;;;;;54.33;21.33;;;;;;;6.99;100.00;100855.94;4978574;28;20042;-70
2022/11/30 03:39:39;;;;;;;51.42;20.73;;;;;;;6.98;100.00;100849.81;4978082;28;20047;-72
2022/11/30 03:42:05;;;;;;;55.80;20.45;;;;;;;6.97;100.00;100852.47;4984445;28;20153;-71
2022/11/30 03:44:32;;;;;;;51.85;21.15;;;;;;;6.94;100.00;100858.66;4995055;28;20054;-69
2022/11/30 03:46:58;;;;;;;53.15;20.65;;;;;;;6.81;100.00;100830.94;4993719;28;20129;-71
2022/11/30 03:49:25;;;;;;;53.03;20.80;;;;;;;6.99;100.00;100862.06;4988123;28;20069;-70
2022/11/30 03:51:51;;;;;;;51.10;21.48;;;;;;;6.99;100.00;100859.44;4986721;28;20056;-69
2022/11/30 03:54:18;;;;;;;55.30;20.80;;;;;;;6.93;100.00;100849.03;4989651;28;20051;-71
2022/11/30 03:56:44;;;;;;;50.42;19.25;;;;;;;6.95;100.00;100862.16;4991672;28;20049;-70
2022/11/30 03:59:11;;;;;;;52.15;20.70;;;;;;;6.85;100.00;100843.13;4981250;28;20047;-68
2022/11/30 04:01:41;;;;;;;47.63;19.80;;;;;;;6.92;100.00;100855.25;4976660;28;20053;-69
2022/11/30 04:04:08;;;;;;;49.67;20.90;;;;;;;6.93;100.00;100862.19;4984157;28;20561;-70
2022/11/30 04:06:35;;;;;;;49.97;20.48;;;;;;;6.76;100.00;100827.56;4992946;28;20057;-72
2022/11/30 04:09:01;;;;;;;52.05;20.25;;;;;;;6.89;100.00;100859.72;4983919;28;20085;-70
2022/11/30 04:11:28;;;;;;;47.63;19.55;;;;;;;6.88;100.00;100860.59;4980297;28;20119;-69
2022/11/30 04:13:55;;;;;;;45.80;19.83;;;;;;;6.93;100.00;100862.19;4990369;28;20091;-70
2022/11/30 04:16:21;;;;;;;49.10;20.27;;;;;;;6.94;100.00;100858.66;4990899;28;20534;-71
2022/11/30 04:18:48;;;;;;;49.30;20.15;;;;;;;6.92;100.00;100851.75;4980260;28;20058;-70
2022/11/30 04:21:14;;;;;;;46.72;19.92;;;;;;;6.92;100.00;100857.88;4977968;28;20076;-72
2022/11/30 04:23:41;;;;;;;51.83;20.50;;;;;;;6.81;100.00;100836.19;4993014;28;20057;-69
2022/11/30 04:26:11;;;;;;;48.00;19.80;;;;;;;6.93;100.00;100858.72;4994464;28;20168;-72
2022/11/30 04:28:39;;;;;;;46.35;20.77;;;;;;;6.97;100.00;100866.50;4990160;28;20054;-70
2022/11/30 04:31:05;;;;;;;45.92;19.70;;;;;;;7.01;100.00;100869.94;4978956;28;20053;-72
2022/11/30 04:33:32;;;;;;;50.72;20.00;;;;;;;6.98;100.00;100854.19;4990079;28;20050;-70
2022/11/30 04:36:02;;;;;;;44.92;20.38;;;;;;;7.04;100.00;100869.84;4993188;28;20050;-72
2022/11/30 04:38:29;;;;;;;45.37;19.63;;;;;;;7.04;100.00;100862.81;4997772;28;20045;-72
2022/11/30 04:40:55;;;;;;;51.47;20.50;;;;;;;7.07;100.00;100867.16;4975278;28;20046;-70
2022/11/30 04:43:22;;;;;;;50.35;19.73;;;;;;;7.09;100.00;100867.09;4994427;28;20133;-69
2022/11/30 04:45:50;;;;;;;55.85;19.83;;;;;;;7.11;100.00;100863.53;4996325;28;20054;-69
2022/11/30 04:48:17;;;;;;;47.72;19.25;;;;;;;7.11;100.00;100865.28;4991465;28;20138;-71
2022/11/30 04:50:44;;;;;;;41.13;18.23;;;;;;;7.08;100.00;100866.25;4985613;28;20141;-69
2022/11/30 04:53:11;;;;;;;57.70;22.02;;;;;;;7.08;100.00;100860.13;4989803;28;20545;-69
2022/11/30 04:55:37;;;;;;;48.80;19.65;;;;;;;6.97;100.00;100834.03;4993796;28;20046;-71
2022/11/30 04:58:04;;;;;;;43.85;19.35;;;;;;;7.11;100.00;100866.16;4994170;28;20125;-71
2022/11/30 05:00:33;;;;;;;45.90;19.70;;;;;;;7.12;100.00;100862.63;4988295;28;20514;-71
2022/11/30 05:02:59;;;;;;;47.80;19.75;;;;;;;7.09;100.00;100857.41;4983039;28;20074;-71
2022/11/30 05:05:26;;;;;;;46.90;19.52;;;;;;;7.11;100.00;100863.53;4979847;28;20065;-69
2022/11/30 05:07:57;;;;;;;43.30;19.38;;;;;;;7.14;100.00;100868.72;4977855;28;20042;-69
2022/11/30 05:10:25;;;;;;;42.58;19.25;;;;;;;7.13;100.00;100869.63;4973539;28;20083;-69
2022/11/30 05:12:52;;;;;;;52.97;20.20;;;;;;;7.15;100.00;100864.31;4974824;28;20522;-69
2022/11/30 05:15:19;;;;;;;43.33;18.38;;;;;;;7.11;100.00;100866.16;4976922;28;20178;-71
2022/11/30 05:17:46;;;;;;;41.70;19.20;;;;;;;7.10;100.00;100860.91;4977254;28;20133;-70
2022/11/30 05:20:12;;;;;;;45.78;19.55;;;;;;;7.12;100.00;100873.16;4974626;28;20136;-69
2022/11/30 05:22:39;;;;;;;42.47;18.90;;;;;;;7.12;100.00;100867.03;4972733;28;20054;-69
2022/11/30 05:25:06;;;;;;;48.97;19.50;;;;;;;7.13;100.00;100876.66;4976823;28;20066;-71
2022/11/30 05:27:34;;;;;;;50.50;19.83;;;;;;;7.12;100.00;100881.06;4970035;28;20130;-71
2022/11/30 05:30:01;;;;;;;46.35;19.63;;;;;;;7.10;100.00;100874.94;4976595;28;20046;-69
2022/11/30 05:32:27;;;;;;;50.95;20.02;;;;;;;7.12;100.00;100877.56;4982666;28;20417;-71
2022/11/30 05:34:54;;;;;;;51.78;20.45;;;;;;;7.04;100.00;100868.09;4977853;28;20050;-70
2022/11/30 05:37:21;;;;;;;50.25;20.30;;;;;;;7.18;100.00;100880.03;4976825;28;20152;-69
2022/11/30 05:39:47;;;;;;;46.42;20.80;;;;;;;7.23;100.00;100886.06;4975641;28;20094;-70
2022/11/30 05:42:14;;;;;;;53.40;22.88;;;;;;;7.21;100.00;100879.97;4968817;28;20065;-70
2022/11/30 05:44:41;;;;;;;58.83;23.10;;;;;;;7.05;100.00;100855.78;4975448;28;20134;-71
2022/11/30 05:47:08;;;;;;;50.97;22.67;;;;;;;7.21;100.00;100874.72;4978791;28;20046;-70
2022/11/30 05:49:34;;;;;;;52.45;22.42;;;;;;;7.24;100.00;100872.84;4975313;28;20137;-71
2022/11/30 05:52:01;;;;;;;53.80;22.42;;;;;;;7.10;100.00;100853.88;4969711;28;20078;-70
2022/11/30 05:54:27;;;;;;;48.83;20.52;;;;;;;7.24;100.00;100882.53;4978327;28;20152;-69
2022/11/30 05:56:54;;;;;;;54.53;22.27;;;;;;;7.26;100.00;100892.09;4976431;28;20137;-71
2022/11/30 05:59:22;;;;;;;47.83;22.08;;;;;;;7.25;100.00;100887.72;4970460;28;20127;-71
2022/11/30 06:01:51;;;;;;;54.28;22.40;;;;;;;7.27;100.00;100887.69;4970040;28;20065;-70
2022/11/30 06:04:18;;;;;;;50.78;22.00;;;;;;;7.12;100.00;100867.88;4983352;28;20054;-71
2022/11/30 06:06:45;;;;;;;50.63;22.42;;;;;;;7.26;100.00;100892.09;4979192;28;20073;-69
2022/11/30 06:09:11;;;;;;;49.95;23.00;;;;;;;7.25;100.00;100890.38;4975967;28;20050;-71
2022/11/30 06:11:38;;;;;;;55.15;23.88;;;;;;;7.29;100.00;100891.16;4974942;28;20042;-71
2022/11/30 06:14:04;;;;;;;53.67;22.73;;;;;;;7.26;100.00;100886.84;4989988;28;20061;-71
2022/11/30 06:16:31;;;;;;;52.70;23.25;;;;;;;7.27;100.00;100893.84;4984949;28;20137;-70
2022/11/30 06:18:58;;;;;;;57.17;23.08;;;;;;;7.27;100.00;100885.94;4993820;28;20047;-67
2022/11/30 06:21:24;;;;;;;52.28;23.40;;;;;;;7.24;100.00;100893.91;4967499;28;20474;-70
2022/11/30 06:23:51;;;;;;;52.75;22.45;;;;;;;7.25;100.00;100889.50;4973658;28;20410;-70
2022/11/30 06:26:18;;;;;;;54.05;22.55;;;;;;;7.28;100.00;100892.94;4975846;28;20053;-68
2022/11/30 06:28:46;;;;;;;53.88;22.45;;;;;;;7.28;100.00;100900.84;4976863;28;20045;-72
2022/11/30 06:31:15;;;;;;;52.92;22.50;;;;;;;7.30;100.00;100891.13;4967704;28;20061;-70
2022/11/30 06:33:42;;;;;;;55.83;23.98;;;;;;;7.14;100.00;100876.63;4983917;28;20058;-70
2022/11/30 06:36:09;;;;;;;58.08;23.42;;;;;;;7.20;100.00;100897.53;4973921;28;20050;-70
2022/11/30 06:38:36;;;;;;;52.92;22.80;;;;;;;7.21;100.00;100899.28;4979052;28;20050;-70
2022/11/30 06:41:04;;;;;;;55.20;23.58;;;;;;;7.23;100.00;100910.66;4977060;28;20057;-70
2022/11/30 06:43:35;;;;;;;50.97;23.60;;;;;;;7.22;100.00;100905.41;4990664;28;20399;-70
2022/11/30 06:46:02;;;;;;;;;;;;;;;7.28;100.00;100902.59;4987344;28;20054;-70
2022/11/30 06:48:29;;;;;;;57.30;24.08;;;;;;;7.31;100.00;100905.16;4994679;28;20027;-68
2022/11/30 06:50:57;;;;;;;55.08;23.75;;;;;;;7.31;100.00;100910.44;4979072;28;20049;-69
2022/11/30 06:53:24;;;;;;;60.50;25.23;;;;;;;7.31;100.00;100913.94;4991140;28;20053;-71
2022/11/30 06:55:51;;;;;;;57.88;24.40;;;;;;;7.03;100.00;100862.88;4985211;28;20138;-71
2022/11/30 06:58:18;;;;;;;63.42;25.67;;;;;;;7.35;100.00;100912.09;4988978;28;20495;-69
2022/11/30 07:00:44;;;;;;;62.63;24.90;;;;;;;7.29;100.00;100899.94;4979401;28;20043;-69
2022/11/30 07:03:11;;;;;;;57.97;24.70;;;;;;;7.38;100.00;100917.28;4987637;28;20039;-72
2022/11/30 07:05:42;;;;;;;58.95;25.63;;;;;;;7.36;100.00;100917.31;4990827;28;20049;-68
2022/11/30 07:08:10;;;;;;;56.42;24.10;;;;;;;7.32;100.00;100918.31;5000217;28;20100;-70
2022/11/30 07:10:41;;;;;;;58.65;23.77;;;;;;;7.30;100.00;100920.09;4987968;28;20169;-70
2022/11/30 07:13:13;;;;;;;60.97;24.17;;;;;;;7.27;100.00;100920.19;4983217;28;20137;-71
2022/11/30 07:15:40;;;;;;;57.88;23.30;;;;;;;7.25;100.00;100916.72;4976662;28;21981;-70
2022/11/30 07:18:08;;;;;;;62.83;24.52;;;;;;;7.26;100.00;100921.06;4984195;28;20046;-70
2022/11/30 07:20:35;;;;;;;56.80;23.73;;;;;;;7.22;100.00;100919.44;4984927;28;20054;-70
2022/11/30 07:26:05;;;;;;;59.33;24.63;;;;;;;7.25;100.00;100927.25;4987180;28;20138;-71
2022/11/30 07:26:05;;;;;;;57.70;23.08;;;;;;;7.28;100.00;100915.78;4989826;28;20046;-70
2022/11/30 07:28:34;;;;;;;60.97;25.08;;;;;;;7.28;100.00;100924.53;4992108;28;20506;-73
2022/11/30 07:31:12;;;;;;;63.25;23.77;;;;;;;7.26;100.00;100918.44;4983504;28;20050;-68
2022/11/30 07:33:42;;;;;;;56.63;23.13;;;;;;;7.30;100.00;100914.84;4992940;28;20456;-70
2022/11/30 07:36:09;;;;;;;59.70;23.33;;;;;;;7.27;100.00;100920.19;4989146;28;20133;-74
2022/11/30 07:38:36;;;;;;;58.63;25.00;;;;;;;7.16;100.00;100901.16;4993522;28;20061;-68
2022/11/30 07:41:03;;;;;;;55.28;22.63;;;;;;;7.16;100.00;100902.91;4987530;28;20561;-69
2022/11/30 07:43:29;;;;;;;52.10;21.88;;;;;;;7.30;100.00;100929.78;4986599;28;20148;-71
2022/11/30 07:45:56;;;;;;;50.78;21.58;;;;;;;7.29;100.00;100928.91;4988708;28;20406;-69
2022/11/30 07:48:23;;;;;;;44.33;18.90;;;;;;;7.31;100.00;100931.50;4994510;28;20054;-72
2022/11/30 07:50:49;;;;;;;43.58;19.42;;;;;;;7.31;100.00;100932.38;4987229;28;20081;-70
2022/11/30 07:53:16;;;;;;;44.67;20.27;;;;;;;7.34;100.00;100934.94;4978534;28;20137;-72
2022/11/30 07:55:43;;;;;;;42.80;18.88;;;;;;;7.32;100.00;100930.59;4982402;28;20053;-70
2022/11/30 07:58:10;;;;;;;36.70;17.75;;;;;;;7.35;100.00;100936.66;4997534;28;20105;-71
2022/11/30 08:00:42;;;;;;;33.55;16.13;;;;;;;7.29;100.00;100941.22;4977861;28;20051;-71
2022/11/30 08:03:09;;;;;;;44.28;17.83;;;;;;;7.33;100.00;100941.09;4977749;28;20087;-72
2022/11/30 08:05:36;;;;;;;38.05;17.23;;;;;;;7.25;100.00;100929.88;4985305;28;20442;-71
2022/11/30 08:08:02;;;;;;;37.55;17.95;;;;;;;7.35;100.00;100941.94;4982725;28;20069;-70
2022/11/30 08:10:29;;;;;;;37.75;18.05;;;;;;;7.34;100.00;100936.72;4990510;28;20058;-73
2022/11/30 08:12:56;;;;;;;39.40;17.02;;;;;;;7.38;100.00;100936.59;4979765;28;20472;-71
2022/11/30 08:15:22;;;;;;;39.03;17.63;;;;;;;7.38;100.00;100944.50;4982655;28;20054;-72
2022/11/30 08:18:04;;;;;;;38.38;17.45;;;;;;;7.39;100.00;100940.97;4991029;28;20057;-71
2022/11/30 08:20:30;;;;;;;32.25;16.10;;;;;;;7.26;100.00;100920.22;4978268;28;20057;-71
2022/11/30 08:22:57;;;;;;;39.33;17.23;;;;;;;7.40;100.00;100947.06;4975977;28;20056;-71
2022/11/30 08:25:24;;;;;;;30.33;16.15;;;;;;;7.38;100.00;100938.38;4985667;28;20050;-71
2022/11/30 08:27:50;;;;;;;38.53;16.17;;;;;;;7.37;100.00;100940.13;4982454;28;20041;-69
2022/11/30 08:30:17;;;;;;;36.58;16.02;;;;;;;7.35;100.00;100947.22;4982340;28;20054;-70
2022/11/30 08:32:43;;;;;;;33.28;16.05;;;;;;;7.18;100.00;100924.81;4979502;28;20065;-69
2022/11/30 08:35:10;;;;;;;29.90;15.07;;;;;;;7.30;100.00;100951.72;4980843;28;20065;-73
2022/11/30 08:37:37;;;;;;;31.02;15.10;;;;;;;7.31;100.00;100937.63;4993846;28;20054;-71
2022/11/30 08:40:05;;;;;;;36.90;16.55;;;;;;;7.37;100.00;100949.81;4982384;28;20039;-73
2022/11/30 08:42:32;;;;;;;37.30;16.38;;;;;;;7.32;100.00;100934.09;4967028;28;20057;-72
2022/11/30 08:44:58;;;;;;;33.72;15.80;;;;;;;7.36;100.00;100938.41;4981348;28;20090;-72
2022/11/30 08:47:28;;;;;;;36.65;16.55;;;;;;;7.42;100.00;100941.75;4986540;28;20051;-72
2022/11/30 08:49:56;;;;;;;40.92;17.08;;;;;;;7.21;100.00;100920.34;4989808;28;20495;-73
2022/11/30 08:52:23;;;;;;;39.90;17.40;;;;;;;7.40;100.00;100957.59;4972576;28;20050;-73
2022/11/30 08:54:50;;;;;;;43.08;18.05;;;;;;;7.31;100.00;100936.78;4980286;28;20053;-73
2022/11/30 08:57:19;;;;;;;44.47;17.50;;;;;;;7.45;100.00;100954.88;4976228;28;20065;-72
2022/11/30 08:59:46;;;;;;;47.80;18.90;;;;;;;7.40;100.00;100947.06;4989914;28;20054;-71
2022/11/30 09:02:18;;;;;;;44.60;18.30;;;;;;;7.47;100.00;100961.84;4974501;28;20050;-72
2022/11/30 09:04:47;;;;;;;40.38;18.35;;;;;;;7.51;100.00;100962.63;4978862;28;20046;-72
2022/11/30 09:07:14;;;;;;;51.70;20.67;;;;;;;7.54;100.00;100962.56;4976785;28;20388;-73
2022/11/30 09:09:41;;;;;;;43.45;19.52;;;;;;;7.49;100.00;100951.25;4981706;28;20054;-70
2022/11/30 09:12:08;;;;;;;50.90;19.30;;;;;;;7.49;100.00;100960.03;4968717;28;20059;-74
2022/11/30 09:14:34;;;;;;;51.88;21.05;;;;;;;7.54;100.00;100966.06;4990719;28;20065;-72
2022/11/30 09:17:01;;;;;;;56.30;21.13;;;;;;;7.55;100.00;100965.16;4991061;28;20058;-71
2022/11/30 09:19:28;;;;;;;50.05;20.50;;;;;;;7.52;100.00;100962.59;4998822;28;20050;-71
2022/11/30 09:21:54;;;;;;;53.75;19.98;;;;;;;7.45;100.00;100949.59;4984630;28;20050;-73
2022/11/30 09:24:21;;;;;;;67.07;23.45;;;;;;;7.59;100.00;100974.69;4996128;28;20049;-73
2022/11/30 09:26:48;;;;;;;61.25;21.98;;;;;;;7.57;100.00;100978.28;4979599;28;20070;-74
2022/11/30 09:29:14;;;;;;;61.20;22.42;;;;;;;7.48;100.00;100960.06;4983163;28;20046;-72
2022/11/30 09:31:41;;;;;;;64.32;23.77;;;;;;;7.55;100.00;100977.47;4968380;28;20051;-73
2022/11/30 09:34:10;;;;;;;60.50;22.70;;;;;;;7.40;100.00;100952.34;4974937;28;20463;-72
2022/11/30 09:36:37;;;;;;;66.40;23.58;;;;;;;7.62;100.00;100979.03;4971926;28;20133;-71
2022/11/30 09:39:03;;;;;;;69.25;25.60;;;;;;;7.67;100.00;100983.28;4976236;28;20407;-71
2022/11/30 09:41:33;;;;;;;65.47;23.67;;;;;;;7.71;100.00;100982.28;4970208;28;20046;-72
2022/11/30 09:44:27;;;;;;;64.18;24.27;;;;;;;7.73;100.00;100977.84;4983152;28;20037;-72
2022/11/30 09:47:31;;;;;;;68.63;23.75;;;;;;;7.81;100.00;100976.78;4966756;28;20058;-71
2022/11/30 09:50:03;;;;;;;76.88;25.65;;;;;;;7.86;100.00;100974.91;4967175;28;21749;-74
2022/11/30 09:52:36;;;;;;;64.18;23.98;;;;;;;7.87;100.00;100966.94;4965316;28;20050;-72
2022/11/30 09:55:12;;;;;;;63.60;25.15;;;;;;;7.93;100.00;100968.53;4980414;28;20054;-72
2022/11/30 09:57:49;;;;;;;61.95;23.27;;;;;;;7.96;100.00;100974.59;4979713;28;20061;-72
2022/11/30 10:00:20;;;;;;;68.65;24.88;;;;;;;7.90;100.00;100963.34;4991191;28;20065;-72
2022/11/30 10:02:52;;;;;;;66.28;24.65;;;;;;;7.80;100.00;100932.88;4969890;28;20129;-72
2022/11/30 10:05:22;;;;;;;66.38;23.90;;;;;;;8.12;100.00;100968.91;4975804;28;20062;-73
2022/11/30 10:08:14;;;;;;;68.20;25.83;;;;;;;8.21;100.00;100976.56;4981073;28;20042;-70
2022/11/30 10:11:01;;;;;;;69.85;25.58;;;;;;;8.14;100.00;100977.66;4986023;28;21538;-72
2022/11/30 10:13:54;;;;;;;62.65;24.15;;;;;;;7.96;100.00;100969.34;4973048;28;20073;-73
2022/11/30 10:16:45;;;;;;;64.22;23.80;;;;;;;7.97;100.00;100971.06;4990519;28;20657;-74
2022/11/30 10:19:17;;;;;;;64.05;24.08;;;;;;;7.96;100.00;100971.97;4985344;28;20527;-71
2022/11/30 10:22:29;;;;;;;62.40;24.85;;;;;;;7.96;100.00;100976.38;4974630;28;20050;-73
2022/11/30 10:24:59;;;;;;;65.05;25.05;;;;;;;7.75;100.00;100938.25;4976038;28;20054;-72
2022/11/30 10:27:50;;;;;;;59.55;23.75;;;;;;;7.90;100.00;100974.75;4980708;28;20051;-70
2022/11/30 10:30:23;;;;;;;68.35;24.10;;;;;;;7.89;100.00;100983.56;4974379;28;20046;-73
2022/11/30 10:32:53;;;;;;;55.60;21.90;;;;;;;7.81;100.00;100969.75;4976800;28;20046;-71
2022/11/30 10:35:33;;;;;;;59.67;23.05;;;;;;;7.77;100.00;100978.63;4985547;28;20509;-74
2022/11/30 10:38:18;;;;;;;57.92;22.25;;;;;;;7.72;100.00;100981.38;4983682;28;20129;-72
2022/11/30 10:40:56;;;;;;;60.03;22.80;;;;;;;7.67;100.00;100966.59;4989507;28;20081;-74
2022/11/30 10:43:29;;;;;;;55.60;22.40;;;;;;;7.68;100.00;100971.84;4976367;28;20055;-73
2022/11/30 10:45:55;;;;;;;55.78;22.00;;;;;;;7.70;100.00;100972.66;4989840;28;20057;-71
2022/11/30 10:48:46;;;;;;;64.30;24.80;;;;;;;7.69;100.00;100957.75;4994562;28;20061;-74
2022/11/30 10:51:13;;;;;;;61.88;23.73;;;;;;;7.74;100.00;100965.53;4989265;28;20069;-71
2022/11/30 10:53:39;;;;;;;59.90;23.92;;;;;;;7.75;100.00;100940.91;4982413;28;20050;-74
2022/11/30 10:56:11;;;;;;;60.38;24.92;;;;;;;7.71;100.00;100932.19;4990196;28;20149;-73
2022/11/30 10:58:55;;;;;;;58.80;23.63;;;;;;;7.91;100.00;100970.34;4985992;28;20055;-73
2022/11/30 11:01:34;;;;;;;47.10;20.65;;;;;;;7.90;100.00;100971.25;4996058;28;20050;-74
2022/11/30 11:04:22;;;;;;;44.90;20.48;;;;;;;7.86;100.00;100962.59;4978923;28;20089;-73
2022/11/30 11:07:08;;;;;;;46.03;21.30;;;;;;;7.73;100.00;100951.47;4990558;28;20062;-75
2022/11/30 11:09:35;;;;;;;45.60;23.75;;;;;;;7.79;100.00;100965.41;4995772;28;20054;-75
2022/11/30 11:12:24;;;;;;;43.70;23.08;;;;;;;7.77;100.00;100959.31;4982064;28;20474;-72
2022/11/30 11:15:09;;;;;;;43.05;22.55;;;;;;;7.77;100.00;100965.44;4991215;28;20054;-72
2022/11/30 11:17:36;;;;;;;37.50;22.13;;;;;;;7.83;100.00;100960.03;4991212;28;20050;-72
2022/11/30 11:20:03;;;;;;;36.90;21.63;;;;;;;7.81;100.00;100943.38;4989210;28;20042;-74